Time;durP1;ratioP1;P1;durP2;ratioP2;P2;SDS_P1;SDS_P2;PMS_P1;PMS_P2;Temp;Humidity;BMP_temperature;BMP_pressure;BME280_temperature;BME280_humidity;BME280_pressure;Samples;Min_cycle;Max_cycle;Signal;HPM_P1;HPM_P2
2022/07/08 00:01:27;;;;;;;7.90;1.50;;;;;;;14.56;69.35;103042.44;4998634;28;20026;-76
2022/07/08 00:03:53;;;;;;;12.23;1.75;;;;;;;14.52;69.74;103041.88;4996917;28;20034;-77
2022/07/08 00:06:18;;;;;;;9.25;1.58;;;;;;;14.49;69.71;103050.31;4993384;28;20030;-75
2022/07/08 00:08:44;;;;;;;7.30;1.70;;;;;;;14.46;69.86;103050.63;4993594;28;20034;-77
2022/07/08 00:11:10;;;;;;;9.48;2.22;;;;;;;14.44;70.00;103047.22;4991923;28;20023;-76
2022/07/08 00:13:35;;;;;;;10.38;1.58;;;;;;;14.44;69.95;103049.91;4993060;28;20033;-77
2022/07/08 00:16:01;;;;;;;10.88;1.58;;;;;;;14.43;70.24;103040.94;4993360;28;20048;-76
2022/07/08 00:18:26;;;;;;;15.02;1.77;;;;;;;14.43;70.85;103054.50;4992931;28;20053;-76
2022/07/08 00:20:51;;;;;;;13.13;1.70;;;;;;;14.42;70.50;103054.63;4993064;28;20058;-76
2022/07/08 00:23:17;;;;;;;10.63;1.65;;;;;;;14.44;70.54;103050.75;4993298;28;20062;-77
2022/07/08 00:25:42;;;;;;;7.53;1.67;;;;;;;14.42;70.69;103052.75;4991539;28;20038;-76
2022/07/08 00:28:08;;;;;;;9.00;1.63;;;;;;;14.39;70.77;103042.25;4994200;28;20034;-77
2022/07/08 00:30:33;;;;;;;19.23;2.33;;;;;;;14.41;70.79;103047.53;4999674;28;20397;-76
2022/07/08 00:32:59;;;;;;;16.75;1.98;;;;;;;14.41;71.04;103039.38;4993097;28;20034;-76
2022/07/08 00:35:25;;;;;;;8.32;1.52;;;;;;;14.37;71.11;103043.41;4993008;28;20395;-74
2022/07/08 00:37:50;;;;;;;14.07;1.73;;;;;;;14.35;71.77;103040.88;4991400;28;20118;-76
2022/07/08 00:40:16;;;;;;;10.88;1.80;;;;;;;14.28;71.76;103029.78;4992826;28;20098;-79
2022/07/08 00:42:41;;;;;;;8.80;1.67;;;;;;;14.34;71.89;103039.13;4991457;28;20066;-78
2022/07/08 00:45:06;;;;;;;15.75;2.15;;;;;;;14.34;72.13;103038.28;4992693;28;20034;-79
2022/07/08 00:47:32;;;;;;;21.08;2.45;;;;;;;14.34;72.42;103041.00;4996082;28;20026;-76
2022/07/08 00:49:57;;;;;;;12.85;1.60;;;;;;;14.35;72.24;103042.69;4991901;28;20034;-77
2022/07/08 00:52:24;;;;;;;15.45;1.98;;;;;;;14.32;72.71;103030.31;4991166;28;20030;-77
2022/07/08 00:54:49;;;;;;;10.43;1.92;;;;;;;14.32;72.75;103037.59;4992187;28;20100;-77
2022/07/08 00:57:15;;;;;;;12.07;1.70;;;;;;;14.30;73.17;103026.03;4991169;28;20023;-78
2022/07/08 00:59:41;;;;;;;21.45;2.00;;;;;;;14.30;73.33;103034.16;4990716;28;20139;-78
2022/07/08 01:02:07;;;;;;;16.88;2.33;;;;;;;14.29;73.36;103036.03;4992472;28;20038;-78
2022/07/08 01:04:32;;;;;;;14.18;1.92;;;;;;;14.26;73.74;103039.91;4992575;28;20037;-78
2022/07/08 01:06:58;;;;;;;13.50;2.08;;;;;;;14.29;73.49;103041.44;4992984;28;20034;-77
2022/07/08 01:09:23;;;;;;;18.58;2.42;;;;;;;14.28;73.48;103045.19;4992349;28;20028;-78
2022/07/08 01:11:49;;;;;;;16.50;1.98;;;;;;;14.24;73.40;103050.06;4994268;28;20026;-76
2022/07/08 01:14:15;;;;;;;12.38;2.25;;;;;;;14.23;73.38;103042.91;4992183;28;20053;-76
2022/07/08 01:16:41;;;;;;;18.90;2.67;;;;;;;14.22;73.37;103041.22;4991473;28;20192;-78
2022/07/08 01:19:06;;;;;;;11.75;1.83;;;;;;;14.21;73.61;103033.25;4992399;28;20117;-78
2022/07/08 01:21:32;;;;;;;16.10;2.25;;;;;;;14.20;73.67;103040.53;4991149;28;20101;-78
2022/07/08 01:23:57;;;;;;;13.65;1.45;;;;;;;14.19;73.53;103041.53;4991577;28;20081;-79
2022/07/08 01:26:23;;;;;;;12.93;2.13;;;;;;;14.18;73.70;103034.41;4990253;28;20026;-78
2022/07/08 01:28:48;;;;;;;17.90;1.80;;;;;;;14.16;73.87;103039.09;4990602;28;20030;-78
2022/07/08 01:31:13;;;;;;;17.10;2.13;;;;;;;14.16;73.96;103039.09;4991719;28;20030;-79
2022/07/08 01:33:39;;;;;;;12.43;2.05;;;;;;;14.14;73.99;103045.69;4991862;28;20089;-78
2022/07/08 01:36:05;;;;;;;16.55;2.38;;;;;;;14.13;74.06;103042.13;4991621;28;20050;-79
2022/07/08 01:38:30;;;;;;;11.88;1.70;;;;;;;14.14;74.15;103038.44;4990629;28;20034;-80
2022/07/08 01:40:56;;;;;;;13.82;1.90;;;;;;;14.12;74.31;103037.72;4991427;28;20157;-80
2022/07/08 01:43:21;;;;;;;15.48;2.03;;;;;;;14.10;74.33;103026.19;4991774;28;20172;-80
2022/07/08 01:45:47;;;;;;;12.13;2.08;;;;;;;14.08;74.67;103041.72;4991286;28;20114;-80
2022/07/08 01:48:12;;;;;;;14.55;1.63;;;;;;;14.06;74.59;103030.22;4991704;28;20188;-80
2022/07/08 01:50:37;;;;;;;10.98;1.70;;;;;;;14.07;74.84;103031.06;4991136;28;20031;-80
2022/07/08 01:53:03;;;;;;;18.90;2.30;;;;;;;14.07;74.90;103031.91;4991861;28;20029;-80
2022/07/08 01:55:28;;;;;;;13.93;1.98;;;;;;;14.06;75.05;103030.22;4990108;28;20030;-80
2022/07/08 01:57:54;;;;;;;16.92;2.47;;;;;;;14.06;75.23;103024.81;4988846;28;20033;-81
2022/07/08 02:00:19;;;;;;;12.40;2.00;;;;;;;14.05;75.30;103023.91;4991373;28;20023;-80
2022/07/08 02:02:45;;;;;;;9.70;1.80;;;;;;;14.05;75.30;103028.50;4990204;28;20035;-80
2022/07/08 02:05:11;;;;;;;14.35;2.08;;;;;;;14.06;75.57;103022.09;4991255;28;20034;-80
2022/07/08 02:07:37;;;;;;;12.45;2.40;;;;;;;14.02;75.65;103026.94;4991516;28;20525;-80
2022/07/08 02:10:04;;;;;;;14.20;2.08;;;;;;;14.03;75.81;103025.06;4990085;28;20069;-81
2022/07/08 02:12:29;;;;;;;15.13;2.60;;;;;;;14.03;76.11;103030.50;4992492;28;20042;-80
2022/07/08 02:15:01;;;;;;;12.45;1.90;;;;;;;14.02;76.21;103039.63;4995519;28;20053;-81
2022/07/08 02:17:28;;;;;;;12.20;2.05;;;;;;;14.00;76.46;103038.91;4978526;28;20441;-81
2022/07/08 02:19:53;;;;;;;16.60;2.00;;;;;;;13.96;76.56;103037.53;4995344;28;20486;-81
2022/07/08 02:22:18;;;;;;;14.77;2.20;;;;;;;13.94;76.70;103032.25;4995045;28;20065;-79
2022/07/08 02:24:44;;;;;;;15.82;1.80;;;;;;;13.91;77.12;103020.91;4995009;28;20038;-79
2022/07/08 02:27:09;;;;;;;11.55;1.63;;;;;;;13.91;77.23;103016.31;4995090;28;20032;-79
2022/07/08 02:29:34;;;;;;;10.13;1.55;;;;;;;13.92;77.40;103015.31;4994798;28;20027;-77
2022/07/08 02:32:00;;;;;;;10.52;2.42;;;;;;;13.95;77.46;103015.00;4993577;28;20493;-80
2022/07/08 02:34:26;;;;;;;15.13;2.00;;;;;;;13.94;77.45;103018.72;5034374;23;20050;-28
2022/07/08 02:36:51;;;;;;;21.20;1.90;;;;;;;13.94;77.69;103017.88;4984516;28;20522;-28
2022/07/08 02:39:17;;;;;;;12.13;2.78;;;;;;;13.94;77.97;103018.72;4985154;28;20030;-29
2022/07/08 02:41:42;;;;;;;15.18;2.05;;;;;;;13.96;77.70;103024.00;4973938;28;20437;-29
2022/07/08 02:44:08;;;;;;;13.25;1.73;;;;;;;13.95;77.83;103016.88;4991351;28;20034;-28
2022/07/08 02:46:34;;;;;;;13.95;2.35;;;;;;;13.93;77.95;103019.75;4993038;28;20026;-30
2022/07/08 02:48:59;;;;;;;20.73;1.88;;;;;;;13.91;78.05;103015.47;4975488;28;20023;-28
2022/07/08 02:51:25;;;;;;;14.55;1.83;;;;;;;13.88;78.48;103005.81;4980881;28;20116;-28
2022/07/08 02:53:50;;;;;;;16.73;2.13;;;;;;;13.86;78.89;103006.97;4979585;28;20046;-29
2022/07/08 02:56:16;;;;;;;11.77;1.73;;;;;;;13.83;79.08;103008.94;4973403;28;20118;-30
2022/07/08 02:58:41;;;;;;;15.93;1.83;;;;;;;13.80;79.09;103005.72;4974027;28;20066;-30
2022/07/08 03:01:06;;;;;;;14.63;2.10;;;;;;;13.77;79.54;103004.16;4972140;28;20113;-29
2022/07/08 03:03:32;;;;;;;12.75;1.83;;;;;;;13.74;79.55;103015.25;4971871;28;20344;-29
2022/07/08 03:05:57;;;;;;;7.97;1.58;;;;;;;13.68;79.68;103015.84;4972369;28;20046;-28
2022/07/08 03:08:22;;;;;;;18.13;2.58;;;;;;;13.64;80.19;103011.75;4979663;28;20092;-29
2022/07/08 03:10:49;;;;;;;19.40;2.05;;;;;;;13.59;80.51;103014.91;4976909;28;20106;-28
2022/07/08 03:13:14;;;;;;;10.98;2.10;;;;;;;13.55;80.52;103018.91;4973678;28;20043;-29
2022/07/08 03:15:40;;;;;;;14.93;1.85;;;;;;;13.54;81.04;103014.50;4972085;28;20023;-29
2022/07/08 03:18:05;;;;;;;14.10;2.67;;;;;;;13.53;81.26;103012.81;4972670;28;20079;-27
2022/07/08 03:20:30;;;;;;;22.40;2.67;;;;;;;13.53;81.38;103003.81;4973305;28;20335;-29
2022/07/08 03:22:56;;;;;;;17.98;2.70;;;;;;;13.51;80.84;103005.84;4970885;28;20043;-29
2022/07/08 03:25:21;;;;;;;10.63;1.90;;;;;;;13.48;81.25;103006.13;4973040;28;20062;-28
2022/07/08 03:27:48;;;;;;;17.92;2.08;;;;;;;13.46;82.03;103010.84;4973571;28;20062;-29
2022/07/08 03:30:14;;;;;;;14.88;2.30;;;;;;;13.44;82.25;103016.38;4973672;28;20027;-28
2022/07/08 03:32:39;;;;;;;15.13;2.58;;;;;;;13.43;82.19;103009.28;4971566;28;20468;-28
2022/07/08 03:35:05;;;;;;;12.82;2.40;;;;;;;13.43;82.18;103013.81;4973451;28;20389;-28
2022/07/08 03:37:30;;;;;;;13.00;2.67;;;;;;;13.43;82.34;103016.53;4973735;28;20092;-29
2022/07/08 03:39:56;;;;;;;13.38;2.20;;;;;;;13.41;82.62;103018.53;4972849;28;20026;-29
2022/07/08 03:42:21;;;;;;;14.07;2.03;;;;;;;13.40;82.29;103012.25;4977857;28;20081;-28
2022/07/08 03:44:47;;;;;;;16.30;2.95;;;;;;;13.35;82.51;103015.44;4975793;28;20523;-28
2022/07/08 03:47:12;;;;;;;18.40;2.60;;;;;;;13.34;83.13;103007.44;4971995;28;20043;-30
2022/07/08 03:49:38;;;;;;;12.07;2.08;;;;;;;13.32;83.43;103020.25;4972687;28;20018;-29
2022/07/08 03:52:04;;;;;;;13.27;2.28;;;;;;;13.29;83.68;103021.41;4972458;28;20034;-29
2022/07/08 03:54:30;;;;;;;11.70;2.10;;;;;;;13.28;83.99;103022.41;4971876;28;20101;-29
2022/07/08 03:56:55;;;;;;;13.50;2.30;;;;;;;13.28;84.11;103022.41;4972717;28;20497;-29
2022/07/08 03:59:20;;;;;;;10.77;2.40;;;;;;;13.27;84.01;103017.13;4971817;28;20023;-28
2022/07/08 04:01:46;;;;;;;13.30;2.10;;;;;;;13.28;84.40;103019.72;4970385;28;20037;-28
2022/07/08 04:04:11;;;;;;;15.23;2.28;;;;;;;13.29;84.61;103018.69;4972116;28;20378;-29
2022/07/08 04:06:36;;;;;;;12.70;2.20;;;;;;;13.28;84.54;103019.72;4970066;28;20146;-28
2022/07/08 04:09:03;;;;;;;14.40;2.33;;;;;;;13.30;84.89;103017.72;4972482;28;20038;-29
2022/07/08 04:11:28;;;;;;;17.25;2.65;;;;;;;13.30;85.18;103023.13;4973087;28;20042;-29
2022/07/08 04:13:53;;;;;;;11.73;2.40;;;;;;;13.36;85.48;103019.81;4972216;28;20030;-28
2022/07/08 04:16:19;;;;;;;9.45;2.17;;;;;;;13.41;85.19;103018.53;4971652;28;20375;-28
2022/07/08 04:18:44;;;;;;;11.88;2.50;;;;;;;13.47;85.12;103015.25;4970901;28;20095;-29
2022/07/08 04:21:09;;;;;;;14.50;2.20;;;;;;;13.51;85.31;103027.47;4972793;28;20065;-28
2022/07/08 04:23:35;;;;;;;9.65;2.13;;;;;;;13.55;85.08;103018.91;4971319;28;20516;-29
2022/07/08 04:26:01;;;;;;;15.02;2.72;;;;;;;13.59;84.72;103027.59;4972317;28;20085;-29
2022/07/08 04:28:27;;;;;;;14.18;3.28;;;;;;;13.66;84.61;103017.84;4972222;28;20027;-29
2022/07/08 04:30:52;;;;;;;17.23;2.92;;;;;;;13.73;84.20;103026.25;4971505;28;20026;-29
2022/07/08 04:33:18;;;;;;;15.73;2.97;;;;;;;13.79;84.04;103031.91;4971817;28;20038;-28
2022/07/08 04:35:43;;;;;;;15.60;2.58;;;;;;;13.87;83.94;103024.88;4972083;28;20034;-30
2022/07/08 04:38:08;;;;;;;19.48;3.15;;;;;;;13.95;84.03;103030.41;4971754;28;20482;-28
2022/07/08 04:40:34;;;;;;;19.13;3.17;;;;;;;14.03;83.95;103039.50;4972790;28;20546;-29
2022/07/08 04:42:59;;;;;;;18.02;3.08;;;;;;;14.14;83.83;103042.97;4971926;28;20019;-28
2022/07/08 04:45:25;;;;;;;15.02;2.92;;;;;;;14.23;83.54;103048.34;4972080;28;20034;-30
2022/07/08 04:47:51;;;;;;;15.98;3.22;;;;;;;14.34;83.13;103059.97;4971797;28;20026;-29
2022/07/08 04:50:16;;;;;;;17.48;3.33;;;;;;;14.43;82.78;103053.63;4970371;28;20039;-29
2022/07/08 04:52:42;;;;;;;18.05;3.75;;;;;;;14.51;82.61;103051.00;4972579;28;20034;-29
2022/07/08 04:55:08;;;;;;;11.43;2.28;;;;;;;14.62;82.75;103066.22;4971772;28;20027;-28
2022/07/08 04:57:33;;;;;;;21.90;3.13;;;;;;;14.75;82.52;103060.41;4972454;28;20153;-29
2022/07/08 04:59:59;;;;;;;19.88;3.33;;;;;;;14.93;82.65;103072.09;4970724;28;20455;-28
2022/07/08 05:02:26;;;;;;;21.23;2.95;;;;;;;15.10;81.97;103073.94;4960112;28;20031;-28
2022/07/08 05:04:51;;;;;;;21.10;2.55;;;;;;;15.27;81.04;103079.47;4969143;28;20042;-29
2022/07/08 05:07:16;;;;;;;14.18;1.95;;;;;;;15.39;80.29;103078.22;4971993;28;20034;-30
2022/07/08 05:09:42;;;;;;;15.82;3.38;;;;;;;15.49;79.75;103087.09;4972031;28;20045;-28
2022/07/08 05:12:07;;;;;;;19.48;2.50;;;;;;;15.61;79.65;103084.94;4971511;28;20033;-28
2022/07/08 05:14:33;;;;;;;15.63;2.10;;;;;;;15.73;79.38;103086.41;4966685;28;20122;-29
2022/07/08 05:16:58;;;;;;;12.13;2.35;;;;;;;15.84;78.49;103077.13;4956526;28;20030;-28
2022/07/08 05:19:23;;;;;;;17.05;2.38;;;;;;;15.96;78.08;103075.84;4969664;28;20030;-29
2022/07/08 05:21:49;;;;;;;17.80;2.60;;;;;;;16.06;77.65;103080.28;4971320;28;20030;-29
2022/07/08 05:24:14;;;;;;;13.25;3.03;;;;;;;16.11;77.30;103078.78;4971163;28;20035;-28
2022/07/08 05:26:39;;;;;;;19.30;2.33;;;;;;;16.26;77.17;103080.88;4966685;28;20058;-28
2022/07/08 05:29:05;;;;;;;14.73;2.25;;;;;;;16.38;76.57;103076.84;4965822;28;20077;-28
2022/07/08 05:31:31;;;;;;;17.63;3.00;;;;;;;16.44;76.19;103079.75;4962349;28;20138;-29
2022/07/08 05:33:57;;;;;;;14.50;2.30;;;;;;;16.47;74.91;103086.72;4964492;28;20049;-28
2022/07/08 05:36:22;;;;;;;16.55;2.20;;;;;;;16.44;74.64;103084.34;4956164;28;20035;-27
2022/07/08 05:38:48;;;;;;;16.23;1.90;;;;;;;16.40;74.93;103085.66;4969050;28;20371;-29
2022/07/08 05:41:13;;;;;;;21.73;2.60;;;;;;;16.43;74.92;103083.50;4968911;28;20037;-28
2022/07/08 05:43:39;;;;;;;14.95;3.08;;;;;;;16.49;75.48;103086.56;4969060;28;20398;-29
2022/07/08 05:46:04;;;;;;;9.32;2.08;;;;;;;16.59;75.17;103081.81;4968048;28;20519;-29
2022/07/08 05:48:29;;;;;;;12.57;2.35;;;;;;;16.72;75.06;103084.91;4969010;28;20030;-28
2022/07/08 05:50:54;;;;;;;14.63;2.33;;;;;;;16.74;74.36;103085.56;4968188;28;20031;-28
2022/07/08 05:53:20;;;;;;;11.35;2.40;;;;;;;16.99;74.10;103091.06;4969132;28;20110;-28
2022/07/08 05:55:46;;;;;;;12.98;2.20;;;;;;;17.09;72.95;103086.31;4968080;28;20470;-28
2022/07/08 05:58:12;;;;;;;14.88;2.40;;;;;;;17.08;72.29;103092.75;4968738;28;20097;-28
2022/07/08 06:00:37;;;;;;;12.30;2.42;;;;;;;17.20;72.23;103096.00;4962289;28;20081;-29
2022/07/08 06:03:05;;;;;;;12.70;2.80;;;;;;;17.30;71.41;103102.97;4967573;28;20034;-29
2022/07/08 06:05:31;;;;;;;16.60;2.50;;;;;;;17.30;70.64;103096.69;4962191;28;20038;-29
2022/07/08 06:07:56;;;;;;;12.43;2.20;;;;;;;17.39;70.71;103095.63;4961004;28;20039;-31
2022/07/08 06:10:21;;;;;;;9.88;1.90;;;;;;;17.47;70.89;103100.22;4955997;28;20028;-29
2022/07/08 06:12:47;;;;;;;14.20;2.10;;;;;;;17.58;70.51;103105.28;4962147;28;20118;-28
2022/07/08 06:15:14;;;;;;;15.23;3.25;;;;;;;17.72;69.61;103110.03;4953201;28;20122;-29
2022/07/08 06:17:40;;;;;;;12.90;2.47;;;;;;;17.86;69.24;103113.94;4967981;28;20023;-26
2022/07/08 06:20:06;;;;;;;11.18;2.10;;;;;;;17.98;68.73;103117.13;4967636;28;20366;-30
2022/07/08 06:22:33;;;;;;;9.52;2.05;;;;;;;18.23;68.23;103114.31;4957554;28;20027;-28
2022/07/08 06:24:59;;;;;;;18.05;2.30;;;;;;;18.61;67.31;103112.56;4963419;28;20027;-26
2022/07/08 06:27:24;;;;;;;19.27;2.88;;;;;;;18.81;65.40;103115.72;4960227;28;20041;-28
2022/07/08 06:29:50;;;;;;;17.67;2.33;;;;;;;18.94;64.27;103118.69;4970351;28;20035;-28
2022/07/08 06:32:15;;;;;;;12.38;1.98;;;;;;;19.11;63.57;103121.28;4965261;28;20472;-27
2022/07/08 06:34:40;;;;;;;17.75;2.13;;;;;;;19.17;63.44;103128.72;4968827;28;20554;-27
2022/07/08 06:37:06;;;;;;;10.52;2.15;;;;;;;19.08;61.38;103123.31;4960177;28;20054;-29
2022/07/08 06:39:31;;;;;;;8.45;1.80;;;;;;;19.14;61.17;103129.97;4965716;28;20035;-28
2022/07/08 06:41:57;;;;;;;118.70;18.33;;;;;;;19.15;61.28;103128.06;4960638;28;20052;-28
2022/07/08 06:44:22;;;;;;;14.10;2.47;;;;;;;19.12;61.61;103139.38;4968631;28;20041;-29
2022/07/08 06:46:47;;;;;;;13.32;2.42;;;;;;;18.99;61.87;103127.16;4965858;28;20039;-29
2022/07/08 06:49:13;;;;;;;14.90;2.17;;;;;;;19.08;61.78;103126.06;4969410;28;20031;-28
2022/07/08 06:51:38;;;;;;;8.38;1.75;;;;;;;19.18;62.04;103123.09;4961962;28;20038;-28
2022/07/08 06:56:47;;;;;;;21.40;2.25;;;;;;;19.36;61.56;103128.22;4963067;28;20145;-27
2022/07/08 06:59:13;;;;;;;11.68;2.05;;;;;;;19.55;61.97;103131.47;4970989;28;20035;-27
2022/07/08 07:01:38;;;;;;;12.65;1.92;;;;;;;19.95;62.09;103132.94;4972510;28;20578;-30
2022/07/08 07:04:04;;;;;;;10.52;1.75;;;;;;;20.22;60.37;103125.94;4973005;28;20087;-29
2022/07/08 07:06:30;;;;;;;8.50;1.67;;;;;;;20.66;59.05;103137.84;4966692;28;20113;-29
2022/07/08 07:08:56;;;;;;;11.10;2.17;;;;;;;20.80;58.87;103126.88;4971151;28;20039;-29
2022/07/08 07:11:21;;;;;;;11.57;2.40;;;;;;;21.21;56.83;103126.19;4970819;28;20049;-28
2022/07/08 07:13:47;;;;;;;11.35;1.73;;;;;;;21.78;54.70;103118.84;4972797;28;20482;-30
2022/07/08 07:16:13;;;;;;;12.48;1.83;;;;;;;22.05;54.27;103129.97;4971536;28;20074;-29
2022/07/08 07:18:39;;;;;;;11.80;1.88;;;;;;;22.00;52.64;103126.97;4972283;28;20462;-28
2022/07/08 07:21:04;;;;;;;11.57;1.92;;;;;;;21.99;52.59;103123.41;4971087;28;20041;-29
2022/07/08 07:23:30;;;;;;;10.90;1.77;;;;;;;22.20;52.00;103127.13;4979105;28;20031;-28
2022/07/08 07:25:55;;;;;;;13.52;2.10;;;;;;;22.31;52.90;103126.53;4973132;28;20096;-28
2022/07/08 07:28:20;;;;;;;7.82;2.13;;;;;;;22.41;51.57;103129.72;4967490;28;20066;-29
2022/07/08 07:30:46;;;;;;;6.78;1.60;;;;;;;22.37;52.60;103127.59;4971617;28;20125;-29
2022/07/08 07:33:11;;;;;;;8.10;1.60;;;;;;;22.37;52.44;103128.44;4972346;28;20038;-29
2022/07/08 07:35:37;;;;;;;10.05;1.50;;;;;;;22.09;53.31;103129.34;4972969;28;20061;-28
2022/07/08 07:38:02;;;;;;;8.40;1.80;;;;;;;22.08;53.27;103130.38;4972229;28;20027;-28
2022/07/08 07:40:28;;;;;;;10.40;1.70;;;;;;;22.29;51.71;103132.19;4969965;28;20038;-29
2022/07/08 07:42:53;;;;;;;10.45;2.13;;;;;;;22.76;50.35;103135.94;4973591;28;20478;-28
2022/07/08 07:45:20;;;;;;;5.88;1.42;;;;;;;23.02;49.76;103133.50;4971507;28;20066;-30
2022/07/08 07:47:45;;;;;;;11.35;2.10;;;;;;;22.98;50.25;103130.31;4972687;28;20065;-29
2022/07/08 07:50:12;;;;;;;7.97;1.60;;;;;;;22.94;50.59;103135.34;4974358;28;20030;-29
2022/07/08 07:52:38;;;;;;;14.37;2.03;;;;;;;23.08;50.07;103132.66;4956905;28;20492;-28
2022/07/08 07:55:05;;;;;;;6.50;1.40;;;;;;;23.51;49.17;103135.78;4973628;28;20081;-28
2022/07/08 07:57:30;;;;;;;9.15;1.60;;;;;;;23.29;49.49;103128.84;4972222;28;20058;-28
2022/07/08 07:59:55;;;;;;;12.18;2.03;;;;;;;23.73;49.15;103127.38;4970471;28;20035;-28
2022/07/08 08:02:21;;;;;;;9.57;1.58;;;;;;;24.70;47.93;103137.34;4973453;28;20063;-28
2022/07/08 08:04:46;;;;;;;5.95;1.33;;;;;;;25.79;42.99;103126.91;4969905;28;20031;-29
2022/07/08 08:07:12;;;;;;;10.43;2.45;;;;;;;25.82;42.65;103128.38;4966953;28;20048;-28
2022/07/08 08:09:37;;;;;;;8.18;1.40;;;;;;;26.60;40.74;103129.59;4972465;28;20030;-29
2022/07/08 08:12:03;;;;;;;5.93;1.35;;;;;;;27.45;39.28;103125.69;4974300;28;20076;-29
2022/07/08 08:14:28;;;;;;;10.43;1.63;;;;;;;27.61;38.69;103121.34;4973975;28;20038;-29
2022/07/08 08:16:53;;;;;;;6.75;1.45;;;;;;;28.00;36.46;103130.81;4973909;28;20035;-29
2022/07/08 08:19:19;;;;;;;11.25;1.80;;;;;;;28.06;35.57;103131.75;4968915;28;20537;-29
2022/07/08 08:21:44;;;;;;;10.30;1.60;;;;;;;28.11;35.19;103127.16;4965090;28;20047;-30
2022/07/08 08:24:09;;;;;;;3.72;1.20;;;;;;;28.01;36.22;103124.19;4960747;28;20031;-30
2022/07/08 08:26:35;;;;;;;9.55;1.88;;;;;;;27.99;36.26;103129.97;4971961;28;20506;-29
2022/07/08 08:29:00;;;;;;;10.23;1.55;;;;;;;27.97;36.09;103125.78;4973636;28;20494;-29
2022/07/08 08:31:25;;;;;;;10.65;1.83;;;;;;;28.49;36.20;103123.00;4972411;28;20464;-28
2022/07/08 08:33:51;;;;;;;6.70;1.60;;;;;;;28.97;35.34;103123.56;4973350;28;20050;-29
2022/07/08 08:36:16;;;;;;;6.85;1.58;;;;;;;29.41;34.98;103123.72;4973065;28;20462;-29
2022/07/08 08:38:41;;;;;;;7.60;1.57;;;;;;;29.13;34.98;103121.91;4973401;28;20027;-29
2022/07/08 08:41:07;;;;;;;10.43;1.70;;;;;;;29.05;36.34;103129.56;4972385;28;20027;-28
2022/07/08 08:43:32;;;;;;;9.90;1.63;;;;;;;28.31;35.97;103126.75;4973027;28;20097;-28
2022/07/08 08:45:59;;;;;;;13.70;1.50;;;;;;;29.00;35.45;103125.84;4972554;28;20088;-29
2022/07/08 08:48:25;;;;;;;4.60;1.48;;;;;;;29.35;34.17;103130.31;4960185;28;20038;-29
2022/07/08 08:50:55;;;;;;;11.60;1.63;;;;;;;28.92;35.16;103129.84;4972327;28;20019;-29
2022/07/08 08:53:41;;;;;;;8.30;1.40;;;;;;;29.19;34.85;103137.53;4966429;28;20043;-29
2022/07/08 08:56:10;;;;;;;5.10;1.27;;;;;;;30.12;33.47;103124.75;4957380;28;20118;-29
2022/07/08 08:58:39;;;;;;;10.73;1.70;;;;;;;29.79;33.12;103135.97;4971985;28;20532;-30
2022/07/08 09:01:08;;;;;;;9.75;1.65;;;;;;;29.99;32.85;103133.47;4970769;28;20086;-28
2022/07/08 09:03:37;;;;;;;5.45;1.45;;;;;;;30.19;31.26;103127.31;4971586;28;20542;-30
2022/07/08 09:06:03;;;;;;;4.97;1.30;;;;;;;29.99;30.99;103130.69;4970631;28;20027;-29
2022/07/08 09:08:28;;;;;;;4.45;1.33;;;;;;;30.48;30.58;103132.69;4963894;28;20062;-29
2022/07/08 09:10:54;;;;;;;6.10;1.27;;;;;;;30.85;29.56;103132.78;4971107;28;20065;-29
2022/07/08 09:13:23;;;;;;;8.60;1.33;;;;;;;30.95;29.60;103132.06;4971695;28;20066;-28
2022/07/08 09:15:57;;;;;;;6.95;1.77;;;;;;;30.44;30.55;103128.72;4971708;28;20158;-29
2022/07/08 09:18:34;;;;;;;3.78;1.00;;;;;;;30.79;30.08;103136.59;4968154;28;20027;-28
2022/07/08 09:21:00;;;;;;;5.18;1.30;;;;;;;30.78;29.12;103132.13;4952996;28;20046;-29
2022/07/08 09:23:26;;;;;;;3.20;1.63;;;;;;;30.37;29.39;103127.00;4958693;28;20039;-29
2022/07/08 09:25:54;;;;;;;5.20;1.10;;;;;;;30.67;29.63;103122.84;4953697;28;20055;-29
2022/07/08 09:28:34;;;;;;;2.92;1.10;;;;;;;31.06;28.53;103129.06;4953388;28;20033;-29
2022/07/08 09:31:02;;;;;;;6.10;1.67;;;;;;;30.76;29.70;103135.19;4963199;28;20061;-30
2022/07/08 09:33:27;;;;;;;2.38;0.95;;;;;;;30.80;28.60;103125.19;4972257;28;20114;-28
2022/07/08 09:35:55;;;;;;;5.97;1.30;;;;;;;31.22;28.49;103129.19;4973130;28;20125;-29
2022/07/08 09:38:21;;;;;;;4.35;1.33;;;;;;;31.09;28.37;103136.06;4972919;28;20045;-27
2022/07/08 09:41:15;;;;;;;5.97;1.33;;;;;;;31.62;27.27;103136.16;4971368;28;20037;-29
2022/07/08 09:43:45;;;;;;;5.32;1.23;;;;;;;31.80;27.40;103137.66;4970699;28;20042;-28
2022/07/08 09:46:11;;;;;;;4.30;1.25;;;;;;;32.10;26.54;103137.84;4968623;28;20026;-29
2022/07/08 09:48:36;;;;;;;5.03;1.00;;;;;;;30.93;26.60;103137.03;4972009;28;20039;-29
2022/07/08 09:51:09;;;;;;;2.57;0.93;;;;;;;30.33;28.23;103139.75;4972713;28;20038;-29
2022/07/08 09:53:39;;;;;;;5.60;1.17;;;;;;;30.22;28.41;103140.69;4956371;28;20379;-29
2022/07/08 09:56:05;;;;;;;13.48;1.20;;;;;;;30.14;28.26;103149.47;4966890;28;20045;-29
2022/07/08 09:58:32;;;;;;;11.48;1.30;;;;;;;30.13;28.69;103136.69;4971616;28;20058;-29
2022/07/08 10:01:00;;;;;;;10.90;1.48;;;;;;;30.13;28.73;103125.59;4968203;28;20023;-29
2022/07/08 10:03:26;;;;;;;12.30;1.20;;;;;;;30.51;27.42;103132.16;4967032;28;20042;-28
2022/07/08 10:05:52;;;;;;;13.63;1.93;;;;;;;30.28;28.04;103139.69;4953348;28;20031;-30
2022/07/08 10:08:18;;;;;;;6.63;1.50;;;;;;;30.54;28.13;103137.19;4962516;28;20046;-29
2022/07/08 10:10:45;;;;;;;7.23;1.60;;;;;;;30.79;29.13;103143.00;4971796;28;20031;-29
2022/07/08 10:13:10;;;;;;;8.35;1.55;;;;;;;30.73;26.89;103140.41;4969255;28;20371;-29
2022/07/08 10:15:37;;;;;;;7.13;1.10;;;;;;;31.11;26.70;103147.75;4970067;28;20038;-29
2022/07/08 10:18:12;;;;;;;5.72;1.40;;;;;;;31.49;26.03;103145.81;4971567;28;20594;-29
2022/07/08 10:20:40;;;;;;;7.20;1.15;;;;;;;31.23;25.89;103148.41;4970325;28;20114;-29
2022/07/08 10:23:08;;;;;;;5.20;1.55;;;;;;;31.25;25.98;103143.44;4963913;28;20031;-30
2022/07/08 10:25:35;;;;;;;4.82;1.20;;;;;;;31.08;27.10;103141.91;4970924;28;20058;-30
2022/07/08 10:28:10;;;;;;;5.82;0.88;;;;;;;30.80;25.87;103149.41;4957236;28;20734;-29
2022/07/08 10:30:46;;;;;;;6.53;0.90;;;;;;;30.48;26.69;103149.34;4971525;28;20374;-29
2022/07/08 10:33:17;;;;;;;11.85;1.10;;;;;;;30.67;27.73;103141.47;4973021;28;20065;-28
2022/07/08 10:36:02;;;;;;;8.45;1.20;;;;;;;30.83;27.68;103135.84;4975069;28;20102;-29
2022/07/08 10:38:38;;;;;;;5.30;1.17;;;;;;;31.28;26.99;103134.56;4975617;28;20449;-29
2022/07/08 10:41:06;;;;;;;8.70;1.30;;;;;;;31.54;26.82;103136.69;4975225;28;20027;-29
2022/07/08 10:43:32;;;;;;;6.32;1.45;;;;;;;31.49;27.78;103140.25;4962812;28;20459;-28
2022/07/08 10:46:01;;;;;;;3.17;1.40;;;;;;;31.27;25.91;103141.19;4974950;28;20057;-30
2022/07/08 10:48:49;;;;;;;5.55;1.50;;;;;;;31.12;27.96;103131.91;4964929;28;20038;-29
2022/07/08 10:51:20;;;;;;;4.55;1.40;;;;;;;31.41;27.40;103129.63;4966216;28;20070;-29
2022/07/08 10:53:55;;;;;;;8.63;1.13;;;;;;;31.27;27.87;103127.28;4972600;28;20047;-29
2022/07/08 10:56:50;;;;;;;6.73;1.57;;;;;;;31.04;29.06;103136.00;4971809;28;20031;-29
2022/07/08 10:59:19;;;;;;;7.63;2.85;;;;;;;30.89;29.30;103124.78;4967827;28;20425;-28
2022/07/08 11:01:52;;;;;;;7.18;1.75;;;;;;;30.80;29.03;103127.16;4972149;28;20045;-30
2022/07/08 11:04:41;;;;;;;8.75;1.90;;;;;;;30.79;28.87;103134.66;4966627;28;20489;-28
2022/07/08 11:07:16;;;;;;;5.65;1.20;;;;;;;30.55;29.79;103127.75;4973342;28;20134;-29
2022/07/08 11:09:43;;;;;;;7.00;1.63;;;;;;;30.08;29.41;103122.75;4958024;28;20023;-28
2022/07/08 11:12:15;;;;;;;;;;;;;;;30.34;29.86;103112.81;4956224;28;20051;-28
2022/07/08 11:14:52;;;;;;;8.15;1.55;;;;;;;30.37;30.13;103118.66;4955787;29;19915;-29
2022/07/08 11:17:22;;;;;;;8.00;1.50;;;;;;;30.47;29.89;103131.00;4985456;28;20022;-29
2022/07/08 11:19:49;;;;;;;7.57;1.55;;;;;;;30.05;30.82;103128.81;4993807;28;20180;-28